aviador You're here:

LFBT Decoded Metar

TARBES in FRANCE
Report Time2017-11-20 22:30:00
UTC Time2017-11-20 22:57:08
Flight Rules vfr VFR
Wind160° at 05 kt
W.Decomp.*RWY 20: 3.8 kt HW 3.2 kt LCW
W.Rank160° ranks 9
Current wind is above 160° avg. (4.0)
Visibility9999 m
Phenomena:N/A
Clouds:N/A
Expected CloudBase > 400 ft AGL from Temp-Dew spread
CeilingNone
Temp03°C (ISA -10)
Dew Point02°C (93% RH)
AAT-0.5°C
QNH1021 hPa
Density Alt-148 ft
Elevation1,191 ft
Report Wrong Elevation
Raw Report
LFBT 202230Z AUTO 16005KT CAVOK 03/02 Q1021 NOSIG=

Extra information for LFBT:More info

Metar Taf Metar & Taf Last 4 Metars F.Rules Stats Wind Profile Meteogram Temp Stats Airport Information Weather charts Add Link Nearby VenuesMetar ALERT Operation Metar Decoded Social comments